Los Angeles International Airport
KLAX : rendu visible

Aérodrome :











RETROUVEZ-NOUS SUR...

 
LOGIN :

S'inscrire | Disclaimer

   EN    FR    IT 

 









Légende :    VFR   VFR Marginal   IFR   IFR Intensif   IFR Très Intensif
Visi : 
Plafond : 
>= 8 km
>= 3000ft
5 à 8 km
1000 à 3000 ft
1500m à 5 km
500 à 1000 ft
800 à 1500m
200 à 500 ft
< 800m
< 200 ft
Symboles :   Orages  Brouillard  Fortes neiges  Fortes précipitations  Vent > 20 kt






- Altitude de l'aérodrome : 125 ft
- Code IATA : LAX


KLAX - Los Angeles International

DERNIER METAR :
  • 201153Z 24013KT 10SM FEW020 FEW027 BKN038 16/10 A2952 RMK AO2 RAB23E33 SLP995 P0000 60000 70001 T01610100 10178 20161 56004 $

METARs EXPIRÉS :
  • 201053Z 23012KT 10SM FEW020 SCT027 BKN041 16/11 A2952 RMK AO2 SLP994 T01610106 $
  • 201026Z 24013KT 10SM FEW021 SCT027 BKN045 16/11 A2952 RMK AO2 T01610106 $
  • 200953Z 25015KT 10SM FEW020 BKN028 BKN044 16/11 A2953 RMK AO2 SLP997 T01610111 $

TAF KLAX
Valide du 20 à 12h jusqu'au 21 à 18h UTC


201121Z 2012/2118 24012KT P6SM VCSH SCT025 OVC040
FM201400 21010KT P6SM -SHRA BKN025 OVC040
FM202100 26012KT P6SM -SHRA BKN035 OVC050
FM210300 VRB03KT P6SM VCSH BKN050 BKN150
FM211200 VRB03KT P6SM SCT150



MET'MAP, la Météo Aéronautique d'un coup d'oeil ! - Copyright ORBIFLY Décembre 2007 - Disclaimer

ORBIFLY MET'MAP TEAM :

Programmation & Développement : Alexandra Zaïnal
Conception & Développement : Baudouin d'Aumeries
Co-Programmation & Développement : Marc-Olivier Méhu
Soutien technique & logistique : Manuel Goepfert

Contact : metmap@orbifly.com




SOURCES & CREDITS :

   NOAA       Earth
Advisory